sensor_id;sensor_type;location;lat;lon;timestamp;pressure;altitude;pressure_sealevel;temperature;humidity
5595;BME280;1003;48.002;7.788;2023-06-19T00:00:45;98271.81;;;21.00;100.00
5595;BME280;1003;48.002;7.788;2023-06-19T00:03:12;98282.03;;;21.13;100.00
5595;BME280;1003;48.002;7.788;2023-06-19T00:05:39;98307.59;;;21.26;100.00
5595;BME280;1003;48.002;7.788;2023-06-19T00:08:06;98343.38;;;21.38;100.00
5595;BME280;1003;48.002;7.788;2023-06-19T00:10:34;98378.13;;;21.41;100.00
5595;BME280;1003;48.002;7.788;2023-06-19T00:13:02;98384.06;;;21.41;100.00
5595;BME280;1003;48.002;7.788;2023-06-19T00:15:30;98393.59;;;21.39;100.00
5595;BME280;1003;48.002;7.788;2023-06-19T00:17:57;98410.84;;;21.36;100.00
5595;BME280;1003;48.002;7.788;2023-06-19T00:20:24;98415.06;;;21.37;100.00
5595;BME280;1003;48.002;7.788;2023-06-19T00:22:52;98415.88;;;21.37;100.00
5595;BME280;1003;48.002;7.788;2023-06-19T00:25:19;98413.22;;;21.39;100.00
5595;BME280;1003;48.002;7.788;2023-06-19T00:27:48;98413.94;;;21.41;100.00
5595;BME280;1003;48.002;7.788;2023-06-19T00:30:15;98412.09;;;21.43;100.00
5595;BME280;1003;48.002;7.788;2023-06-19T00:32:42;98404.31;;;21.44;100.00
5595;BME280;1003;48.002;7.788;2023-06-19T00:35:14;98399.00;;;21.47;100.00
5595;BME280;1003;48.002;7.788;2023-06-19T00:37:41;98394.72;;;21.48;100.00
5595;BME280;1003;48.002;7.788;2023-06-19T00:40:19;98395.13;;;21.55;100.00
5595;BME280;1003;48.002;7.788;2023-06-19T00:42:48;98384.06;;;21.54;100.00
5595;BME280;1003;48.002;7.788;2023-06-19T00:45:15;98384.78;;;21.56;100.00
5595;BME280;1003;48.002;7.788;2023-06-19T00:47:42;98400.00;;;21.58;100.00
5595;BME280;1003;48.002;7.788;2023-06-19T00:50:10;98413.72;;;21.57;100.00
5595;BME280;1003;48.002;7.788;2023-06-19T00:52:38;98439.22;;;21.58;100.00
5595;BME280;1003;48.002;7.788;2023-06-19T00:55:07;98447.88;;;21.56;100.00
5595;BME280;1003;48.002;7.788;2023-06-19T00:57:35;98446.97;;;21.57;100.00
5595;BME280;1003;48.002;7.788;2023-06-19T01:00:05;98447.88;;;21.56;100.00
5595;BME280;1003;48.002;7.788;2023-06-19T01:02:34;98455.56;;;21.56;100.00
5595;BME280;1003;48.002;7.788;2023-06-19T01:05:01;98458.94;;;21.56;100.00
5595;BME280;1003;48.002;7.788;2023-06-19T01:07:38;98456.69;;;21.52;100.00
5595;BME280;1003;48.002;7.788;2023-06-19T01:10:15;98437.44;;;21.46;100.00
5595;BME280;1003;48.002;7.788;2023-06-19T01:12:50;98356.66;;;21.31;100.00
5595;BME280;1003;48.002;7.788;2023-06-19T01:15:23;98299.13;;;21.00;100.00
5595;BME280;1003;48.002;7.788;2023-06-19T01:17:50;98260.38;;;20.93;100.00
5595;BME280;1003;48.002;7.788;2023-06-19T01:20:18;98205.22;;;20.90;100.00
5595;BME280;1003;48.002;7.788;2023-06-19T01:22:46;98201.34;;;20.72;100.00
5595;BME280;1003;48.002;7.788;2023-06-19T01:25:13;98180.16;;;20.19;100.00
5595;BME280;1003;48.002;7.788;2023-06-19T01:27:41;98192.88;;;20.06;100.00
5595;BME280;1003;48.002;7.788;2023-06-19T01:30:11;98225.22;;;19.93;100.00
5595;BME280;1003;48.002;7.788;2023-06-19T01:32:48;98048.81;;;19.86;100.00
5595;BME280;1003;48.002;7.788;2023-06-19T01:35:19;98081.66;;;19.78;100.00
5595;BME280;1003;48.002;7.788;2023-06-19T01:37:52;98108.25;;;19.74;100.00
5595;BME280;1003;48.002;7.788;2023-06-19T01:40:20;98130.78;;;19.67;100.00
5595;BME280;1003;48.002;7.788;2023-06-19T01:42:52;98148.31;;;19.59;100.00
5595;BME280;1003;48.002;7.788;2023-06-19T01:45:20;98166.44;;;19.40;100.00
5595;BME280;1003;48.002;7.788;2023-06-19T01:47:47;98160.56;;;19.26;100.00
5595;BME280;1003;48.002;7.788;2023-06-19T01:50:14;98218.28;;;19.27;100.00
5595;BME280;1003;48.002;7.788;2023-06-19T01:52:42;98269.56;;;19.21;100.00
5595;BME280;1003;48.002;7.788;2023-06-19T01:55:10;98286.69;;;19.19;100.00
5595;BME280;1003;48.002;7.788;2023-06-19T01:57:37;98330.25;;;19.14;100.00
5595;BME280;1003;48.002;7.788;2023-06-19T02:00:06;98388.84;;;19.14;100.00
5595;BME280;1003;48.002;7.788;2023-06-19T02:02:35;98434.06;;;19.10;100.00
5595;BME280;1003;48.002;7.788;2023-06-19T02:05:03;98470.81;;;19.06;100.00
5595;BME280;1003;48.002;7.788;2023-06-19T02:07:30;98496.34;;;19.05;100.00
5595;BME280;1003;48.002;7.788;2023-06-19T02:09:58;98530.31;;;19.05;100.00
5595;BME280;1003;48.002;7.788;2023-06-19T02:12:26;98585.34;;;19.08;100.00
5595;BME280;1003;48.002;7.788;2023-06-19T02:14:53;98617.63;;;19.07;100.00
5595;BME280;1003;48.002;7.788;2023-06-19T02:17:20;98647.72;;;19.01;100.00
5595;BME280;1003;48.002;7.788;2023-06-19T02:19:47;98684.41;;;18.97;100.00
5595;BME280;1003;48.002;7.788;2023-06-19T02:22:14;98755.00;;;18.95;100.00
5595;BME280;1003;48.002;7.788;2023-06-19T02:24:41;98884.06;;;18.94;100.00
5595;BME280;1003;48.002;7.788;2023-06-19T02:27:10;98900.91;;;18.97;100.00
5595;BME280;1003;48.002;7.788;2023-06-19T02:29:38;98946.06;;;18.93;100.00
5595;BME280;1003;48.002;7.788;2023-06-19T02:32:06;98951.25;;;18.92;100.00
5595;BME280;1003;48.002;7.788;2023-06-19T02:34:33;98959.09;;;18.87;100.00
5595;BME280;1003;48.002;7.788;2023-06-19T02:37:00;98977.09;;;18.84;100.00
5595;BME280;1003;48.002;7.788;2023-06-19T02:39:27;98969.59;;;18.81;100.00
5595;BME280;1003;48.002;7.788;2023-06-19T02:41:54;98974.81;;;18.78;100.00
5595;BME280;1003;48.002;7.788;2023-06-19T02:44:21;98981.63;;;18.77;100.00
5595;BME280;1003;48.002;7.788;2023-06-19T02:46:49;98990.09;;;18.78;100.00
5595;BME280;1003;48.002;7.788;2023-06-19T02:49:16;98991.06;;;18.75;100.00
5595;BME280;1003;48.002;7.788;2023-06-19T02:51:43;98991.13;;;18.74;100.00
5595;BME280;1003;48.002;7.788;2023-06-19T02:54:10;98982.69;;;18.73;100.00
5595;BME280;1003;48.002;7.788;2023-06-19T02:56:38;98974.28;;;18.71;100.00
5595;BME280;1003;48.002;7.788;2023-06-19T02:59:05;98942.00;;;18.72;100.00
5595;BME280;1003;48.002;7.788;2023-06-19T03:01:32;98935.25;;;18.71;100.00
5595;BME280;1003;48.002;7.788;2023-06-19T03:04:01;98929.75;;;18.61;100.00
5595;BME280;1003;48.002;7.788;2023-06-19T03:06:28;98921.28;;;18.60;100.00
5595;BME280;1003;48.002;7.788;2023-06-19T03:08:55;98911.91;;;18.61;100.00
5595;BME280;1003;48.002;7.788;2023-06-19T03:11:22;98908.56;;;18.60;100.00
5595;BME280;1003;48.002;7.788;2023-06-19T03:13:51;98939.06;;;18.62;100.00
5595;BME280;1003;48.002;7.788;2023-06-19T03:16:19;98946.81;;;18.59;100.00
5595;BME280;1003;48.002;7.788;2023-06-19T03:18:46;98942.63;;;18.58;100.00
5595;BME280;1003;48.002;7.788;2023-06-19T03:21:16;98959.97;;;18.69;100.00
5595;BME280;1003;48.002;7.788;2023-06-19T03:23:45;98965.91;;;18.69;100.00
5595;BME280;1003;48.002;7.788;2023-06-19T03:26:12;99040.25;;;18.76;100.00
5595;BME280;1003;48.002;7.788;2023-06-19T03:28:39;99061.66;;;18.72;100.00
5595;BME280;1003;48.002;7.788;2023-06-19T03:31:05;99081.22;;;18.71;100.00
5595;BME280;1003;48.002;7.788;2023-06-19T03:33:32;99072.91;;;18.66;100.00
5595;BME280;1003;48.002;7.788;2023-06-19T03:35:59;99072.91;;;18.66;100.00
5595;BME280;1003;48.002;7.788;2023-06-19T03:38:28;99066.09;;;18.67;100.00
5595;BME280;1003;48.002;7.788;2023-06-19T03:40:55;99064.44;;;18.66;100.00
5595;BME280;1003;48.002;7.788;2023-06-19T03:43:22;99086.44;;;18.68;100.00
5595;BME280;1003;48.002;7.788;2023-06-19T03:45:49;99088.09;;;18.69;100.00
5595;BME280;1003;48.002;7.788;2023-06-19T03:48:16;99093.19;;;18.69;100.00
5595;BME280;1003;48.002;7.788;2023-06-19T03:50:44;99171.78;;;18.77;100.00
5595;BME280;1003;48.002;7.788;2023-06-19T03:53:11;99192.03;;;18.80;100.00
5595;BME280;1003;48.002;7.788;2023-06-19T03:55:39;99103.78;;;18.79;100.00
5595;BME280;1003;48.002;7.788;2023-06-19T03:58:06;99117.41;;;18.78;100.00
5595;BME280;1003;48.002;7.788;2023-06-19T04:00:33;99136.94;;;18.77;100.00
5595;BME280;1003;48.002;7.788;2023-06-19T04:03:00;99153.00;;;18.79;100.00
5595;BME280;1003;48.002;7.788;2023-06-19T04:05:27;99164.75;;;18.82;100.00
5595;BME280;1003;48.002;7.788;2023-06-19T04:07:54;99185.91;;;18.84;100.00
5595;BME280;1003;48.002;7.788;2023-06-19T04:10:21;99213.50;;;18.93;100.00
5595;BME280;1003;48.002;7.788;2023-06-19T04:12:50;99232.94;;;18.96;100.00
5595;BME280;1003;48.002;7.788;2023-06-19T04:15:17;99234.69;;;18.94;100.00
5595;BME280;1003;48.002;7.788;2023-06-19T04:17:44;99239.94;;;18.91;100.00
5595;BME280;1003;48.002;7.788;2023-06-19T04:20:11;99250.69;;;18.97;100.00
5595;BME280;1003;48.002;7.788;2023-06-19T04:22:39;99250.69;;;18.97;100.00
5595;BME280;1003;48.002;7.788;2023-06-19T04:25:08;99240.31;;;19.02;100.00
5595;BME280;1003;48.002;7.788;2023-06-19T04:27:36;99241.75;;;19.07;100.00
5595;BME280;1003;48.002;7.788;2023-06-19T04:30:06;99238.00;;;19.16;100.00
5595;BME280;1003;48.002;7.788;2023-06-19T04:32:34;99228.41;;;19.21;100.00
5595;BME280;1003;48.002;7.788;2023-06-19T04:35:01;99222.06;;;19.30;100.00
5595;BME280;1003;48.002;7.788;2023-06-19T04:37:28;99231.03;;;19.38;100.00
5595;BME280;1003;48.002;7.788;2023-06-19T04:39:55;99228.75;;;19.51;100.00
5595;BME280;1003;48.002;7.788;2023-06-19T04:42:24;99228.81;;;19.69;100.00
5595;BME280;1003;48.002;7.788;2023-06-19T04:44:52;99224.03;;;19.80;100.00
5595;BME280;1003;48.002;7.788;2023-06-19T04:47:23;99209.94;;;19.90;100.00
5595;BME280;1003;48.002;7.788;2023-06-19T04:49:50;99212.28;;;19.95;100.00
5595;BME280;1003;48.002;7.788;2023-06-19T04:52:17;99197.06;;;19.93;100.00
5595;BME280;1003;48.002;7.788;2023-06-19T04:54:44;99188.94;;;19.85;100.00
5595;BME280;1003;48.002;7.788;2023-06-19T04:57:14;99178.88;;;19.82;100.00
5595;BME280;1003;48.002;7.788;2023-06-19T04:59:42;99174.41;;;19.87;100.00
5595;BME280;1003;48.002;7.788;2023-06-19T05:02:10;99178.44;;;19.91;100.00
5595;BME280;1003;48.002;7.788;2023-06-19T05:04:38;99168.97;;;20.28;100.00
5595;BME280;1003;48.002;7.788;2023-06-19T05:07:08;99159.34;;;20.33;100.00
5595;BME280;1003;48.002;7.788;2023-06-19T05:09:36;99144.94;;;20.32;100.00
5595;BME280;1003;48.002;7.788;2023-06-19T05:12:04;99136.53;;;20.47;100.00
5595;BME280;1003;48.002;7.788;2023-06-19T05:14:31;99123.91;;;20.61;100.00
5595;BME280;1003;48.002;7.788;2023-06-19T05:16:58;99116.81;;;20.66;100.00
5595;BME280;1003;48.002;7.788;2023-06-19T05:19:25;99111.53;;;20.69;100.00
5595;BME280;1003;48.002;7.788;2023-06-19T05:21:53;99080.88;;;20.69;100.00
5595;BME280;1003;48.002;7.788;2023-06-19T05:24:20;99032.25;;;20.71;100.00
5595;BME280;1003;48.002;7.788;2023-06-19T05:26:47;99029.31;;;20.63;100.00
5595;BME280;1003;48.002;7.788;2023-06-19T05:29:14;99017.13;;;20.68;100.00
5595;BME280;1003;48.002;7.788;2023-06-19T05:31:41;98994.38;;;20.63;100.00
5595;BME280;1003;48.002;7.788;2023-06-19T05:34:08;98974.75;;;20.64;100.00
5595;BME280;1003;48.002;7.788;2023-06-19T05:36:35;98962.13;;;20.77;100.00
5595;BME280;1003;48.002;7.788;2023-06-19T05:39:04;98960.34;;;20.79;100.00
5595;BME280;1003;48.002;7.788;2023-06-19T05:41:31;98940.06;;;21.06;100.00
5595;BME280;1003;48.002;7.788;2023-06-19T05:43:58;98930.63;;;21.22;100.00
5595;BME280;1003;48.002;7.788;2023-06-19T05:46:25;98899.28;;;21.48;100.00
5595;BME280;1003;48.002;7.788;2023-06-19T05:48:52;98846.00;;;21.69;100.00
5595;BME280;1003;48.002;7.788;2023-06-19T05:51:20;98768.91;;;21.88;100.00
5595;BME280;1003;48.002;7.788;2023-06-19T05:53:47;98778.31;;;22.29;100.00
5595;BME280;1003;48.002;7.788;2023-06-19T05:56:17;98765.75;;;23.15;100.00
5595;BME280;1003;48.002;7.788;2023-06-19T05:58:44;98742.78;;;23.50;100.00
5595;BME280;1003;48.002;7.788;2023-06-19T06:01:11;98594.63;;;24.90;100.00
5595;BME280;1003;48.002;7.788;2023-06-19T06:03:38;98527.63;;;25.14;100.00
5595;BME280;1003;48.002;7.788;2023-06-19T06:06:05;98607.56;;;25.75;100.00
5595;BME280;1003;48.002;7.788;2023-06-19T06:08:32;98576.38;;;25.89;100.00
5595;BME280;1003;48.002;7.788;2023-06-19T06:11:00;98551.53;;;25.47;100.00
5595;BME280;1003;48.002;7.788;2023-06-19T06:13:28;98571.59;;;25.85;100.00
5595;BME280;1003;48.002;7.788;2023-06-19T06:15:55;98567.97;;;25.55;100.00
5595;BME280;1003;48.002;7.788;2023-06-19T06:18:22;98583.06;;;25.28;100.00
5595;BME280;1003;48.002;7.788;2023-06-19T06:20:49;98580.59;;;24.94;100.00
5595;BME280;1003;48.002;7.788;2023-06-19T06:23:16;98563.97;;;25.42;100.00
5595;BME280;1003;48.002;7.788;2023-06-19T06:25:43;98566.78;;;25.59;100.00
5595;BME280;1003;48.002;7.788;2023-06-19T06:28:11;98574.34;;;26.24;100.00
5595;BME280;1003;48.002;7.788;2023-06-19T06:30:39;98597.13;;;26.49;100.00
5595;BME280;1003;48.002;7.788;2023-06-19T06:33:06;98602.16;;;26.51;100.00
5595;BME280;1003;48.002;7.788;2023-06-19T06:35:33;98614.16;;;26.40;100.00
5595;BME280;1003;48.002;7.788;2023-06-19T06:38:01;98619.44;;;26.69;100.00
5595;BME280;1003;48.002;7.788;2023-06-19T06:40:28;98651.84;;;26.62;100.00
5595;BME280;1003;48.002;7.788;2023-06-19T06:42:55;98660.06;;;27.37;100.00
5595;BME280;1003;48.002;7.788;2023-06-19T06:45:22;98660.56;;;27.21;100.00
5595;BME280;1003;48.002;7.788;2023-06-19T06:47:51;98669.13;;;25.78;100.00
5595;BME280;1003;48.002;7.788;2023-06-19T06:50:18;98671.13;;;25.75;100.00
5595;BME280;1003;48.002;7.788;2023-06-19T06:52:45;98671.50;;;26.12;100.00
5595;BME280;1003;48.002;7.788;2023-06-19T06:55:12;98671.34;;;26.34;100.00
5595;BME280;1003;48.002;7.788;2023-06-19T06:57:39;98675.78;;;26.23;100.00
5595;BME280;1003;48.002;7.788;2023-06-19T07:00:08;98686.41;;;27.31;100.00
5595;BME280;1003;48.002;7.788;2023-06-19T07:02:38;98742.97;;;28.40;100.00
5595;BME280;1003;48.002;7.788;2023-06-19T07:05:09;98796.50;;;28.96;100.00
5595;BME280;1003;48.002;7.788;2023-06-19T07:07:37;98848.00;;;28.80;100.00
5595;BME280;1003;48.002;7.788;2023-06-19T07:10:05;98838.59;;;27.82;100.00
5595;BME280;1003;48.002;7.788;2023-06-19T07:12:32;98815.94;;;26.94;100.00
5595;BME280;1003;48.002;7.788;2023-06-19T07:15:00;98813.16;;;27.07;100.00
5595;BME280;1003;48.002;7.788;2023-06-19T07:17:27;98812.97;;;27.19;100.00
5595;BME280;1003;48.002;7.788;2023-06-19T07:19:53;98801.50;;;27.53;100.00
5595;BME280;1003;48.002;7.788;2023-06-19T07:22:22;98798.28;;;27.20;100.00
5595;BME280;1003;48.002;7.788;2023-06-19T07:24:49;98788.00;;;27.30;100.00
5595;BME280;1003;48.002;7.788;2023-06-19T07:27:16;98787.72;;;26.72;100.00
5595;BME280;1003;48.002;7.788;2023-06-19T07:29:44;98784.34;;;26.18;100.00
5595;BME280;1003;48.002;7.788;2023-06-19T07:32:11;98786.84;;;25.76;100.00
5595;BME280;1003;48.002;7.788;2023-06-19T07:34:38;98779.84;;;25.45;100.00
5595;BME280;1003;48.002;7.788;2023-06-19T07:37:05;98777.75;;;25.38;100.00
5595;BME280;1003;48.002;7.788;2023-06-19T07:39:34;98791.63;;;25.81;100.00
5595;BME280;1003;48.002;7.788;2023-06-19T07:42:01;98791.00;;;26.53;100.00
5595;BME280;1003;48.002;7.788;2023-06-19T07:44:27;98787.84;;;27.01;100.00
5595;BME280;1003;48.002;7.788;2023-06-19T07:46:54;98780.59;;;27.65;100.00
5595;BME280;1003;48.002;7.788;2023-06-19T07:49:21;98760.63;;;28.64;100.00
5595;BME280;1003;48.002;7.788;2023-06-19T07:51:48;98748.53;;;29.02;100.00
5595;BME280;1003;48.002;7.788;2023-06-19T07:54:15;98751.19;;;29.38;100.00
5595;BME280;1003;48.002;7.788;2023-06-19T07:56:44;98759.38;;;30.32;100.00
5595;BME280;1003;48.002;7.788;2023-06-19T07:59:11;98763.38;;;30.70;100.00
5595;BME280;1003;48.002;7.788;2023-06-19T08:01:39;98753.25;;;30.15;100.00
5595;BME280;1003;48.002;7.788;2023-06-19T08:04:07;98769.94;;;30.65;100.00
5595;BME280;1003;48.002;7.788;2023-06-19T08:06:34;98768.97;;;30.66;100.00
5595;BME280;1003;48.002;7.788;2023-06-19T08:09:01;98747.56;;;30.12;100.00
5595;BME280;1003;48.002;7.788;2023-06-19T08:11:29;98785.63;;;29.93;100.00
5595;BME280;1003;48.002;7.788;2023-06-19T08:13:57;98793.31;;;29.12;100.00
5595;BME280;1003;48.002;7.788;2023-06-19T08:16:25;98790.09;;;29.28;100.00
5595;BME280;1003;48.002;7.788;2023-06-19T08:18:52;98781.22;;;29.03;100.00
5595;BME280;1003;48.002;7.788;2023-06-19T08:21:19;98794.53;;;28.51;100.00
5595;BME280;1003;48.002;7.788;2023-06-19T08:23:47;98795.22;;;28.63;100.00
5595;BME280;1003;48.002;7.788;2023-06-19T08:26:14;98794.78;;;27.71;100.00
5595;BME280;1003;48.002;7.788;2023-06-19T08:28:41;98790.78;;;27.57;100.00
5595;BME280;1003;48.002;7.788;2023-06-19T08:31:09;98793.38;;;27.57;100.00
5595;BME280;1003;48.002;7.788;2023-06-19T08:33:36;98795.91;;;27.88;100.00
5595;BME280;1003;48.002;7.788;2023-06-19T08:36:04;98794.28;;;28.16;100.00
5595;BME280;1003;48.002;7.788;2023-06-19T08:38:31;98803.97;;;28.99;100.00
5595;BME280;1003;48.002;7.788;2023-06-19T08:40:58;98807.06;;;29.68;100.00
5595;BME280;1003;48.002;7.788;2023-06-19T08:43:25;98810.50;;;30.22;100.00
5595;BME280;1003;48.002;7.788;2023-06-19T08:46:05;98818.94;;;30.86;100.00
5595;BME280;1003;48.002;7.788;2023-06-19T08:48:36;98837.41;;;30.65;100.00
5595;BME280;1003;48.002;7.788;2023-06-19T08:51:04;98835.75;;;30.38;100.00
5595;BME280;1003;48.002;7.788;2023-06-19T08:53:34;98847.75;;;30.39;96.29
5595;BME280;1003;48.002;7.788;2023-06-19T08:56:02;98849.16;;;30.33;99.29
5595;BME280;1003;48.002;7.788;2023-06-19T08:58:29;98839.44;;;30.71;100.00
5595;BME280;1003;48.002;7.788;2023-06-19T09:00:58;98840.16;;;30.63;99.00
5595;BME280;1003;48.002;7.788;2023-06-19T09:03:26;98840.44;;;30.78;98.15
5595;BME280;1003;48.002;7.788;2023-06-19T09:05:54;98831.13;;;30.93;100.00
5595;BME280;1003;48.002;7.788;2023-06-19T09:08:22;98834.06;;;30.98;94.33
5595;BME280;1003;48.002;7.788;2023-06-19T09:10:57;98830.28;;;31.19;95.99
5595;BME280;1003;48.002;7.788;2023-06-19T09:13:25;98836.13;;;30.43;95.01
5595;BME280;1003;48.002;7.788;2023-06-19T09:15:59;98837.84;;;30.78;99.23
5595;BME280;1003;48.002;7.788;2023-06-19T09:18:29;98832.28;;;30.99;100.00
5595;BME280;1003;48.002;7.788;2023-06-19T09:20:59;98828.94;;;30.19;96.40
5595;BME280;1003;48.002;7.788;2023-06-19T09:23:26;98828.63;;;29.86;100.00
5595;BME280;1003;48.002;7.788;2023-06-19T09:25:54;98817.69;;;30.10;100.00
5595;BME280;1003;48.002;7.788;2023-06-19T09:28:24;98819.63;;;30.26;99.50
5595;BME280;1003;48.002;7.788;2023-06-19T09:30:54;98823.59;;;30.38;100.00
5595;BME280;1003;48.002;7.788;2023-06-19T09:33:22;98823.09;;;30.17;99.11
5595;BME280;1003;48.002;7.788;2023-06-19T09:35:50;98826.22;;;30.64;97.57
5595;BME280;1003;48.002;7.788;2023-06-19T09:38:21;98823.47;;;30.83;95.30
5595;BME280;1003;48.002;7.788;2023-06-19T09:40:48;98823.78;;;30.89;97.88
5595;BME280;1003;48.002;7.788;2023-06-19T09:43:22;98831.53;;;30.19;83.00
5595;BME280;1003;48.002;7.788;2023-06-19T09:45:55;98831.84;;;30.16;76.45
5595;BME280;1003;48.002;7.788;2023-06-19T09:48:28;98836.50;;;30.12;76.74
5595;BME280;1003;48.002;7.788;2023-06-19T09:51:07;98829.22;;;30.33;74.85
5595;BME280;1003;48.002;7.788;2023-06-19T09:53:37;98839.41;;;30.27;74.69
5595;BME280;1003;48.002;7.788;2023-06-19T09:56:04;98830.16;;;30.50;70.10
5595;BME280;1003;48.002;7.788;2023-06-19T09:58:32;98831.78;;;30.25;69.58
5595;BME280;1003;48.002;7.788;2023-06-19T10:01:00;98834.22;;;30.27;70.28
5595;BME280;1003;48.002;7.788;2023-06-19T10:03:31;98818.94;;;30.06;68.08
5595;BME280;1003;48.002;7.788;2023-06-19T10:05:59;98830.31;;;29.77;72.31
5595;BME280;1003;48.002;7.788;2023-06-19T10:08:29;98813.75;;;30.06;69.42
5595;BME280;1003;48.002;7.788;2023-06-19T10:10:58;98809.69;;;30.21;68.19
5595;BME280;1003;48.002;7.788;2023-06-19T10:13:32;98801.38;;;30.36;70.82
5595;BME280;1003;48.002;7.788;2023-06-19T10:16:00;98806.56;;;30.36;64.19
5595;BME280;1003;48.002;7.788;2023-06-19T10:18:28;98809.28;;;30.34;65.77
5595;BME280;1003;48.002;7.788;2023-06-19T10:20:55;98813.88;;;30.40;63.02
5595;BME280;1003;48.002;7.788;2023-06-19T10:23:25;98814.41;;;30.44;62.88
5595;BME280;1003;48.002;7.788;2023-06-19T10:26:00;98814.31;;;30.53;63.12
5595;BME280;1003;48.002;7.788;2023-06-19T10:28:30;98819.44;;;30.45;62.61
5595;BME280;1003;48.002;7.788;2023-06-19T10:31:02;98822.34;;;30.42;62.57
5595;BME280;1003;48.002;7.788;2023-06-19T10:33:34;98813.09;;;30.04;61.70
5595;BME280;1003;48.002;7.788;2023-06-19T10:36:14;98815.75;;;29.76;62.10
5595;BME280;1003;48.002;7.788;2023-06-19T10:38:42;98804.50;;;30.03;67.64
5595;BME280;1003;48.002;7.788;2023-06-19T10:41:16;98808.44;;;30.25;63.29
5595;BME280;1003;48.002;7.788;2023-06-19T10:43:56;98811.19;;;30.50;62.35
5595;BME280;1003;48.002;7.788;2023-06-19T10:46:24;98812.78;;;30.43;62.44
5595;BME280;1003;48.002;7.788;2023-06-19T10:48:51;98810.03;;;30.44;61.21
5595;BME280;1003;48.002;7.788;2023-06-19T10:51:23;98806.69;;;30.78;60.67
5595;BME280;1003;48.002;7.788;2023-06-19T10:53:53;98803.53;;;30.92;62.20
5595;BME280;1003;48.002;7.788;2023-06-19T10:56:23;98808.13;;;30.98;59.37
5595;BME280;1003;48.002;7.788;2023-06-19T10:58:58;98802.16;;;31.06;60.47
5595;BME280;1003;48.002;7.788;2023-06-19T11:01:36;98802.34;;;30.78;57.66
5595;BME280;1003;48.002;7.788;2023-06-19T11:04:05;98793.94;;;30.67;58.84
5595;BME280;1003;48.002;7.788;2023-06-19T11:06:33;98798.03;;;30.43;59.53
5595;BME280;1003;48.002;7.788;2023-06-19T11:09:00;98791.09;;;30.26;59.02
5595;BME280;1003;48.002;7.788;2023-06-19T11:11:41;98796.81;;;30.55;64.09
5595;BME280;1003;48.002;7.788;2023-06-19T11:14:10;98787.72;;;30.51;60.78
5595;BME280;1003;48.002;7.788;2023-06-19T11:16:40;98797.63;;;30.56;61.12
5595;BME280;1003;48.002;7.788;2023-06-19T11:19:09;98785.13;;;30.51;57.53
5595;BME280;1003;48.002;7.788;2023-06-19T11:21:37;98785.44;;;31.00;61.65
5595;BME280;1003;48.002;7.788;2023-06-19T11:24:10;98781.72;;;31.45;58.28
5595;BME280;1003;48.002;7.788;2023-06-19T11:26:39;98790.47;;;31.44;56.19
5595;BME280;1003;48.002;7.788;2023-06-19T11:29:17;98783.78;;;31.92;55.28
5595;BME280;1003;48.002;7.788;2023-06-19T11:31:45;98783.75;;;31.84;55.38
5595;BME280;1003;48.002;7.788;2023-06-19T11:34:13;98788.84;;;31.09;54.73
5595;BME280;1003;48.002;7.788;2023-06-19T11:36:42;98786.78;;;31.55;57.89
5595;BME280;1003;48.002;7.788;2023-06-19T11:39:11;98779.00;;;31.71;56.26
5595;BME280;1003;48.002;7.788;2023-06-19T11:41:43;98780.94;;;31.69;53.61
5595;BME280;1003;48.002;7.788;2023-06-19T11:44:10;98781.50;;;32.13;57.00
5595;BME280;1003;48.002;7.788;2023-06-19T11:46:38;98773.34;;;32.33;55.17
5595;BME280;1003;48.002;7.788;2023-06-19T11:49:10;98784.28;;;32.36;52.29
5595;BME280;1003;48.002;7.788;2023-06-19T11:51:38;98773.97;;;32.59;52.39
5595;BME280;1003;48.002;7.788;2023-06-19T11:54:08;98776.38;;;32.77;53.81
5595;BME280;1003;48.002;7.788;2023-06-19T11:56:36;98771.66;;;32.89;50.50
5595;BME280;1003;48.002;7.788;2023-06-19T11:59:04;98772.47;;;33.29;52.04
5595;BME280;1003;48.002;7.788;2023-06-19T12:01:33;98768.59;;;33.79;49.63
5595;BME280;1003;48.002;7.788;2023-06-19T12:04:00;98765.06;;;33.49;47.77
5595;BME280;1003;48.002;7.788;2023-06-19T12:06:28;98760.75;;;33.56;48.32
5595;BME280;1003;48.002;7.788;2023-06-19T12:08:56;98763.84;;;33.28;48.57
5595;BME280;1003;48.002;7.788;2023-06-19T12:11:23;98769.78;;;32.09;49.13
5595;BME280;1003;48.002;7.788;2023-06-19T12:13:50;98768.66;;;31.87;53.82
5595;BME280;1003;48.002;7.788;2023-06-19T12:16:20;98758.09;;;32.13;52.99
5595;BME280;1003;48.002;7.788;2023-06-19T12:18:47;98761.97;;;32.26;52.13
5595;BME280;1003;48.002;7.788;2023-06-19T12:21:14;98749.78;;;32.43;54.03
5595;BME280;1003;48.002;7.788;2023-06-19T12:23:41;98749.25;;;32.63;50.50
5595;BME280;1003;48.002;7.788;2023-06-19T12:26:08;98746.91;;;32.85;53.46
5595;BME280;1003;48.002;7.788;2023-06-19T12:28:35;98753.25;;;32.82;51.23
5595;BME280;1003;48.002;7.788;2023-06-19T12:31:02;98751.13;;;32.86;48.29
5595;BME280;1003;48.002;7.788;2023-06-19T12:33:31;98753.06;;;32.36;48.95
5595;BME280;1003;48.002;7.788;2023-06-19T12:36:01;98738.13;;;32.86;51.23
5595;BME280;1003;48.002;7.788;2023-06-19T12:38:28;98743.13;;;32.32;48.03
5595;BME280;1003;48.002;7.788;2023-06-19T12:40:55;98740.50;;;31.75;48.66
5595;BME280;1003;48.002;7.788;2023-06-19T12:43:23;98739.41;;;31.85;48.29
5595;BME280;1003;48.002;7.788;2023-06-19T12:45:50;98728.81;;;32.11;51.49
5595;BME280;1003;48.002;7.788;2023-06-19T12:48:17;98735.66;;;32.37;49.34
5595;BME280;1003;48.002;7.788;2023-06-19T12:50:45;98731.63;;;32.82;52.19
5595;BME280;1003;48.002;7.788;2023-06-19T12:53:12;98732.34;;;32.59;48.63
5595;BME280;1003;48.002;7.788;2023-06-19T12:55:39;98735.56;;;32.70;54.87
5595;BME280;1003;48.002;7.788;2023-06-19T12:58:06;98729.25;;;32.64;55.30
5595;BME280;1003;48.002;7.788;2023-06-19T13:00:33;98733.22;;;31.95;50.86
5595;BME280;1003;48.002;7.788;2023-06-19T13:03:00;98733.56;;;31.25;50.23
5595;BME280;1003;48.002;7.788;2023-06-19T13:05:28;98736.44;;;31.64;55.02
5595;BME280;1003;48.002;7.788;2023-06-19T13:07:56;98733.72;;;31.82;58.58
5595;BME280;1003;48.002;7.788;2023-06-19T13:10:23;98731.56;;;31.77;53.70
5595;BME280;1003;48.002;7.788;2023-06-19T13:12:50;98719.09;;;31.89;57.40
5595;BME280;1003;48.002;7.788;2023-06-19T13:15:17;98722.63;;;31.63;51.34
5595;BME280;1003;48.002;7.788;2023-06-19T13:17:44;98722.63;;;31.55;50.72
5595;BME280;1003;48.002;7.788;2023-06-19T13:20:11;98719.34;;;31.37;52.35